Time;durP1;ratioP1;P1;durP2;ratioP2;P2;SDS_P1;SDS_P2;PMS_P1;PMS_P2;Temp;Humidity;BMP_temperature;BMP_pressure;BME280_temperature;BME280_humidity;BME280_pressure;Samples;Min_cycle;Max_cycle;Signal;HPM_P1;HPM_P2
2021/07/29 00:01:04;;;;;;;;;2.00;2.00;;;;;;;;4695823;30;45725;-89
2021/07/29 00:03:30;;;;;;;;;2.25;2.00;;;;;;;;4711242;30;46577;-91
2021/07/29 00:06:03;;;;;;;;;3.00;2.00;;;;;;;;4710113;30;45480;-89
2021/07/29 00:08:55;;;;;;;;;2.00;2.00;;;;;;;;4705846;30;45471;-89
2021/07/29 00:11:20;;;;;;;;;2.00;2.00;;;;;;;;4701686;30;45422;-88
2021/07/29 00:13:46;;;;;;;;;2.75;2.00;;;;;;;;4702333;30;46868;-91
2021/07/29 00:26:33;;;;;;;;;5.00;2.00;;;;;;;;5121878;24;45917;-94
2021/07/29 00:29:00;;;;;;;;;3.25;1.75;;;;;;;;4687987;30;45501;-94
2021/07/29 00:34:02;;;;;;;;;1.75;1.75;;;;;;;;4730634;24;45323;-93
2021/07/29 00:36:48;;;;;;;;;3.25;2.25;;;;;;;;4719958;30;44842;-94
2021/07/29 00:47:48;;;;;;;;;2.50;2.00;;;;;;;;4702957;30;45498;-81
2021/07/29 00:51:08;;;;;;;;;2.00;2.00;;;;;;;;4681325;30;45909;-80
2021/07/29 01:03:03;;;;;;;;;3.00;3.00;;;;;;;;4632149;30;45482;-80
2021/07/29 01:05:28;;;;;;;;;3.50;2.25;;;;;;;;4629848;30;45460;-82
2021/07/29 01:23:31;;;;;;;;;4.00;3.00;;;;;;;;4613042;30;45612;-80
2021/07/29 01:32:47;;;;;;;;;1.75;1.25;;;;;;;;4546586;31;45746;-81
2021/07/29 01:35:13;;;;;;;;;5.50;2.00;;;;;;;;4523775;31;46979;-82
2021/07/29 01:42:48;;;;;;;;;3.75;2.75;;;;;;;;4851295;24;50454;-80
2021/07/29 01:45:15;;;;;;;;;3.00;3.00;;;;;;;;4670161;30;46920;-82
2021/07/29 01:51:55;;;;;;;;;;;;;;;;;;;;;
2021/07/29 01:54:43;;;;;;;;;1.00;1.00;;;;;;;;4606007;30;75334;-81
2021/07/29 01:57:24;;;;;;;;;4.00;1.00;;;;;;;;4583121;30;45764;-81
2021/07/29 01:59:55;;;;;;;;;2.50;2.25;;;;;;;;4590165;30;45628;-81
2021/07/29 02:02:52;;;;;;;;;5.25;2.00;;;;;;;;4606502;30;47136;-81
2021/07/29 02:08:44;;;;;;;;;2.00;2.00;;;;;;;;4600573;30;45601;-81
2021/07/29 02:18:08;;;;;;;;;;;;;;;;;;;;;
2021/07/29 02:20:43;;;;;;;;;2.00;1.50;;;;;;;;4503512;31;73074;-81
2021/07/29 02:38:52;;;;;;;;;5.00;2.50;;;;;;;;4549962;31;45383;-80
2021/07/29 02:48:01;;;;;;;;;4.00;2.25;;;;;;;;4507389;31;45601;-80
2021/07/29 02:50:31;;;;;;;;;2.00;2.00;;;;;;;;4504474;31;45506;-80
2021/07/29 02:56:05;;;;;;;;;2.25;2.00;;;;;;;;4591167;30;45850;-81
2021/07/29 02:58:30;;;;;;;;;4.25;2.00;;;;;;;;4577525;30;45633;-81
2021/07/29 03:04:03;;;;;;;;;3.00;3.00;;;;;;;;4589564;30;45830;-81
2021/07/29 03:06:33;;;;;;;;;4.25;2.00;;;;;;;;4584916;30;45603;-81
2021/07/29 03:09:04;;;;;;;;;3.00;2.00;;;;;;;;4587800;30;45727;-81
2021/07/29 03:11:59;;;;;;;;;3.00;2.25;;;;;;;;4594750;30;45681;-80
2021/07/29 03:14:25;;;;;;;;;3.00;3.00;;;;;;;;4593533;30;46424;-80
2021/07/29 03:20:13;;;;;;;;;3.00;3.00;;;;;;;;4663592;30;45388;-80
2021/07/29 03:22:39;;;;;;;;;3.00;3.00;;;;;;;;4675822;30;50283;-81
2021/07/29 03:25:06;;;;;;;;;1.00;1.00;;;;;;;;4694186;30;45496;-82
2021/07/29 03:27:58;;;;;;;;;;;;;;;;;;;;;
2021/07/29 03:34:06;;;;;;;;;3.00;2.00;;;;;;;;4698292;30;45487;-80
2021/07/29 03:36:34;;;;;;;;;1.75;1.75;;;;;;;;4672492;30;47047;-80
2021/07/29 03:39:11;;;;;;;;;2.25;2.00;;;;;;;;4674820;30;45804;-82
2021/07/29 03:42:14;;;;;;;;;2.50;2.00;;;;;;;;4697805;29;45459;-80
2021/07/29 03:44:40;;;;;;;;;2.75;2.00;;;;;;;;4679613;30;45706;-80
2021/07/29 03:47:07;;;;;;;;;4.50;3.00;;;;;;;;4661855;30;45643;-80
2021/07/29 03:49:47;;;;;;;;;3.75;2.50;;;;;;;;4670800;30;45699;-80
2021/07/29 03:52:25;;;;;;;;;2.50;2.50;;;;;;;;4685342;30;45603;-81
2021/07/29 03:57:45;;;;;;;;;3.00;3.00;;;;;;;;4659661;30;46447;-81
2021/07/29 04:00:41;;;;;;;;;3.25;3.25;;;;;;;;4666804;30;45905;-81
2021/07/29 04:03:07;;;;;;;;;2.75;2.75;;;;;;;;4654778;30;45636;-83
2021/07/29 04:14:46;;;;;;;;;3.50;3.25;;;;;;;;4675885;30;45655;-80
2021/07/29 04:20:39;;;;;;;;;3.50;2.25;;;;;;;;4675494;30;45782;-80
2021/07/29 04:26:00;;;;;;;;;3.00;3.00;;;;;;;;4686427;30;45652;-80
2021/07/29 04:28:47;;;;;;;;;4.50;2.00;;;;;;;;4664236;30;45651;-81
2021/07/29 04:31:13;;;;;;;;;4.75;3.00;;;;;;;;4678884;30;45901;-81
2021/07/29 04:37:24;;;;;;;;;4.00;1.75;;;;;;;;4682992;30;45479;-80
2021/07/29 04:43:22;;;;;;;;;;;;;;;;;;;;;
2021/07/29 04:45:58;;;;;;;;;6.25;3.00;;;;;;;;4624595;30;72991;-80
2021/07/29 04:48:23;;;;;;;;;3.75;3.75;;;;;;;;4632775;30;45715;-80
2021/07/29 04:51:16;;;;;;;;;3.75;3.75;;;;;;;;4639609;30;45452;-80
2021/07/29 04:57:09;;;;;;;;;5.50;2.00;;;;;;;;4639929;30;45717;-81
2021/07/29 04:59:47;;;;;;;;;3.00;2.00;;;;;;;;4621371;30;45888;-80
2021/07/29 05:02:37;;;;;;;;;5.00;3.00;;;;;;;;4637097;30;45539;-79
2021/07/29 05:05:08;;;;;;;;;3.00;2.25;;;;;;;;4619553;30;45523;-81
2021/07/29 05:07:49;;;;;;;;;3.50;2.75;;;;;;;;4637895;30;45866;-80
2021/07/29 05:13:43;;;;;;;;;3.00;3.00;;;;;;;;4640011;30;45693;-81
2021/07/29 05:16:11;;;;;;;;;5.00;4.25;;;;;;;;4626779;30;48279;-80
2021/07/29 05:21:42;;;;;;;;;6.50;5.00;;;;;;;;4630043;30;45582;-81
2021/07/29 05:24:24;;;;;;;;;4.00;4.00;;;;;;;;4636540;30;45758;-81
2021/07/29 05:26:50;;;;;;;;;3.00;2.25;;;;;;;;4626165;30;45675;-80
2021/07/29 05:29:41;;;;;;;;;2.00;2.00;;;;;;;;4621410;30;50810;-81
2021/07/29 05:32:07;;;;;;;;;5.50;4.00;;;;;;;;4582297;30;45736;-81
2021/07/29 05:34:33;;;;;;;;;6.75;4.00;;;;;;;;4569958;30;45717;-81
2021/07/29 05:37:35;;;;;;;;;6.25;3.50;;;;;;;;4586987;30;51535;-80
2021/07/29 05:43:43;;;;;;;;;3.00;3.00;;;;;;;;4593638;30;45335;-81
2021/07/29 05:52:17;;;;;;;;;3.00;3.00;;;;;;;;4598291;30;45620;-80
2021/07/29 05:54:43;;;;;;;;;3.00;3.00;;;;;;;;4598481;30;45593;-81
2021/07/29 05:57:17;;;;;;;;;7.00;3.75;;;;;;;;4593517;30;45495;-80
2021/07/29 06:00:11;;;;;;;;;;;;;;;;;;;;;
2021/07/29 06:08:16;;;;;;;;;3.75;3.00;;;;;;;;4560663;30;45593;-82
2021/07/29 06:11:07;;;;;;;;;2.50;2.50;;;;;;;;4571226;30;46125;-80
2021/07/29 06:14:01;;;;;;;;;2.75;2.00;;;;;;;;4549561;31;45511;-80
2021/07/29 06:32:15;;;;;;;;;3.25;2.25;;;;;;;;4550533;30;48642;-81
2021/07/29 06:35:02;;;;;;;;;3.25;3.00;;;;;;;;4547181;31;46911;-81
2021/07/29 06:37:37;;;;;;;;;2.00;2.00;;;;;;;;4556074;31;50984;-81
2021/07/29 06:40:43;;;;;;;;;3.25;2.75;;;;;;;;4561149;31;45583;-82
2021/07/29 06:43:34;;;;;;;;;3.00;3.00;;;;;;;;4567160;31;45608;-80
2021/07/29 06:46:18;;;;;;;;;3.25;2.50;;;;;;;;4545172;31;46008;-81
2021/07/29 06:48:48;;;;;;;;;2.50;2.25;;;;;;;;4566698;30;45327;-80
2021/07/29 06:51:13;;;;;;;;;3.25;3.25;;;;;;;;4531321;31;45872;-80
2021/07/29 06:54:04;;;;;;;;;3.00;2.75;;;;;;;;4570355;30;45562;-80
2021/07/29 06:57:33;;;;;;;;;;;;;;;;;;;;;
2021/07/29 07:43:47;;;;;;;;;3.00;3.00;;;;;;;;5513727;24;46020;-94
2021/07/29 07:46:12;;;;;;;;;6.25;3.00;;;;;;;;4695086;30;45349;-95
2021/07/29 07:48:38;;;;;;;;;3.00;3.00;;;;;;;;4699490;30;45284;-95
2021/07/29 07:51:03;;;;;;;;;3.75;2.50;;;;;;;;4687228;30;45495;-94
2021/07/29 07:53:29;;;;;;;;;3.75;3.75;;;;;;;;4687605;30;47087;-93
2021/07/29 07:55:54;;;;;;;;;3.50;3.50;;;;;;;;4687975;30;45803;-93
2021/07/29 07:58:20;;;;;;;;;3.75;3.00;;;;;;;;4686630;30;45501;-92
2021/07/29 08:00:45;;;;;;;;;3.75;3.75;;;;;;;;4717789;24;45547;-93
2021/07/29 08:03:12;;;;;;;;;5.75;3.00;;;;;;;;4699390;30;47626;-93
2021/07/29 08:05:37;;;;;;;;;8.00;3.75;;;;;;;;4702269;30;45542;-95
2021/07/29 08:08:06;;;;;;;;;3.75;2.00;;;;;;;;4713587;30;46024;-93
2021/07/29 08:10:36;;;;;;;;;4.00;3.00;;;;;;;;4710141;30;45664;-94
2021/07/29 08:13:02;;;;;;;;;4.50;2.50;;;;;;;;4714523;30;45331;-93
2021/07/29 08:15:35;;;;;;;;;5.00;3.50;;;;;;;;4716451;30;45585;-93
2021/07/29 08:18:01;;;;;;;;;2.50;2.50;;;;;;;;4712617;30;45545;-92
2021/07/29 08:20:28;;;;;;;;;2.50;2.00;;;;;;;;4701824;30;45425;-90
2021/07/29 08:25:50;;;;;;;;;5.75;4.00;;;;;;;;4696945;30;45570;-79
2021/07/29 08:28:21;;;;;;;;;4.00;3.00;;;;;;;;4675604;30;46058;-79
2021/07/29 08:31:17;;;;;;;;;2.00;2.00;;;;;;;;4653981;30;45614;-79
2021/07/29 08:43:15;;;;;;;;;3.25;2.75;;;;;;;;4615135;30;45770;-82
2021/07/29 09:09:52;;;;;;;;;3.00;3.00;;;;;;;;5040456;24;45976;-94
2021/07/29 09:12:24;;;;;;;;;4.75;2.00;;;;;;;;4667936;30;45470;-93
2021/07/29 09:14:52;;;;;;;;;2.00;2.00;;;;;;;;4673414;30;45552;-95
2021/07/29 09:17:18;;;;;;;;;4.00;2.00;;;;;;;;4667835;30;46821;-95
2021/07/29 09:19:45;;;;;;;;;3.00;2.00;;;;;;;;4685071;30;45429;-96
2021/07/29 09:22:15;;;;;;;;;3.25;2.00;;;;;;;;4666607;30;45479;-94
2021/07/29 09:24:59;;;;;;;;;3.00;3.00;;;;;;;;4671701;30;45578;-92
2021/07/29 09:27:25;;;;;;;;;3.00;3.00;;;;;;;;4659527;30;46974;-94
2021/07/29 09:29:51;;;;;;;;;2.00;2.00;;;;;;;;4668067;30;46074;-94
2021/07/29 09:32:17;;;;;;;;;5.25;4.00;;;;;;;;4667180;30;45485;-93
2021/07/29 09:34:54;;;;;;;;;2.25;2.25;;;;;;;;4683969;30;45270;-93
2021/07/29 09:37:19;;;;;;;;;3.25;3.00;;;;;;;;4681453;30;48336;-92
2021/07/29 09:39:46;;;;;;;;;2.75;1.50;;;;;;;;4687894;30;45415;-93
2021/07/29 09:42:14;;;;;;;;;2.00;1.50;;;;;;;;4681690;30;45648;-96
2021/07/29 09:44:44;;;;;;;;;3.00;2.75;;;;;;;;4663897;30;45654;-92
2021/07/29 09:47:09;;;;;;;;;2.75;2.75;;;;;;;;4683456;30;45786;-93
2021/07/29 09:49:44;;;;;;;;;2.25;2.25;;;;;;;;4682171;30;45411;-94
2021/07/29 09:52:09;;;;;;;;;4.00;2.00;;;;;;;;4680398;30;45311;-92
2021/07/29 09:54:38;;;;;;;;;2.25;2.25;;;;;;;;4669946;30;45410;-93
2021/07/29 09:57:04;;;;;;;;;3.25;2.00;;;;;;;;4684576;30;45671;-91
2021/07/29 09:59:30;;;;;;;;;3.25;2.00;;;;;;;;4683838;30;45462;-92
2021/07/29 10:02:08;;;;;;;;;2.00;2.00;;;;;;;;4665365;30;45870;-95
2021/07/29 10:04:53;;;;;;;;;5.50;2.00;;;;;;;;4679874;30;44950;-94
2021/07/29 10:07:39;;;;;;;;;4.25;2.00;;;;;;;;4658582;30;47370;-92
2021/07/29 10:10:11;;;;;;;;;3.00;3.00;;;;;;;;4663472;30;45564;-93
2021/07/29 10:12:36;;;;;;;;;1.00;1.00;;;;;;;;4678952;30;45538;-91
2021/07/29 10:15:02;;;;;;;;;2.00;2.00;;;;;;;;4658153;30;45276;-92
2021/07/29 10:17:34;;;;;;;;;2.00;2.00;;;;;;;;4678171;30;45412;-93
2021/07/29 10:20:11;;;;;;;;;3.25;3.00;;;;;;;;4668597;30;45914;-92
2021/07/29 10:22:45;;;;;;;;;3.75;2.50;;;;;;;;4676225;30;45588;-93
2021/07/29 10:25:11;;;;;;;;;1.75;1.50;;;;;;;;4668132;30;45771;-92
2021/07/29 10:27:38;;;;;;;;;1.25;1.25;;;;;;;;4669029;30;47821;-95
2021/07/29 10:30:28;;;;;;;;;3.75;1.25;;;;;;;;4666766;30;45720;-92
2021/07/29 10:33:20;;;;;;;;;2.00;2.00;;;;;;;;4669687;30;45487;-95
2021/07/29 10:35:48;;;;;;;;;3.00;1.00;;;;;;;;4679863;30;45528;-93
2021/07/29 10:38:33;;;;;;;;;4.50;2.00;;;;;;;;4663905;30;46880;-93
2021/07/29 10:41:05;;;;;;;;;1.25;1.25;;;;;;;;4682448;30;45506;-94
2021/07/29 10:43:30;;;;;;;;;2.00;2.00;;;;;;;;4684168;30;45435;-92
2021/07/29 10:45:56;;;;;;;;;3.00;2.00;;;;;;;;4688775;30;45534;-91
2021/07/29 10:51:26;;;;;;;;;2.00;2.00;;;;;;;;5146873;24;45760;-94
2021/07/29 10:56:29;;;;;;;;;4.25;3.00;;;;;;;;4774656;24;45523;-94
2021/07/29 10:58:57;;;;;;;;;2.00;2.00;;;;;;;;4691930;30;45697;-94
2021/07/29 11:01:46;;;;;;;;;2.00;2.00;;;;;;;;4695103;30;45590;-92
2021/07/29 11:04:13;;;;;;;;;2.25;2.00;;;;;;;;4697684;30;45484;-93
2021/07/29 11:07:05;;;;;;;;;4.00;3.00;;;;;;;;4735707;24;45340;-93
2021/07/29 11:09:35;;;;;;;;;3.75;1.00;;;;;;;;4665432;30;45476;-92
2021/07/29 11:15:26;;;;;;;;;1.00;1.00;;;;;;;;4669725;30;45378;-81
2021/07/29 11:49:03;;;;;;;;;2.50;2.00;;;;;;;;4812810;24;45506;-86
2021/07/29 11:51:28;;;;;;;;;1.00;1.00;;;;;;;;4693030;30;46126;-86
2021/07/29 11:53:56;;;;;;;;;1.75;1.75;;;;;;;;4693554;30;45645;-88
2021/07/29 12:06:41;;;;;;;;;2.25;2.00;;;;;;;;5474777;24;44974;-93
2021/07/29 12:09:07;;;;;;;;;4.00;2.00;;;;;;;;4676734;30;45569;-92
2021/07/29 12:11:58;;;;;;;;;1.00;1.00;;;;;;;;4692296;30;45488;-90
2021/07/29 12:14:25;;;;;;;;;1.00;1.00;;;;;;;;4690648;30;47140;-90
2021/07/29 12:16:51;;;;;;;;;1.00;1.00;;;;;;;;4692108;30;47217;-89
2021/07/29 12:19:18;;;;;;;;;3.00;1.75;;;;;;;;4696827;30;45523;-87
2021/07/29 12:21:44;;;;;;;;;1.25;1.25;;;;;;;;4695510;30;47062;-90
2021/07/29 12:24:09;;;;;;;;;1.75;1.75;;;;;;;;4695350;30;46055;-90
2021/07/29 12:26:35;;;;;;;;;1.50;1.50;;;;;;;;4691192;30;45402;-89
2021/07/29 12:29:00;;;;;;;;;2.00;2.00;;;;;;;;4702291;30;45512;-89
2021/07/29 12:31:27;;;;;;;;;1.75;1.75;;;;;;;;4699091;30;45488;-91
2021/07/29 12:33:59;;;;;;;;;3.50;2.00;;;;;;;;4698866;30;46523;-88
2021/07/29 12:36:39;;;;;;;;;2.25;2.00;;;;;;;;4697231;30;45532;-90
2021/07/29 12:39:04;;;;;;;;;2.50;2.00;;;;;;;;4689751;30;45351;-87
2021/07/29 12:41:33;;;;;;;;;2.00;2.00;;;;;;;;4687428;30;45062;-91
2021/07/29 12:44:15;;;;;;;;;2.00;1.75;;;;;;;;4690254;30;46666;-87
2021/07/29 12:46:41;;;;;;;;;1.50;1.25;;;;;;;;4691737;30;45662;-89
2021/07/29 12:49:21;;;;;;;;;1.00;1.00;;;;;;;;4678936;30;45509;-88
2021/07/29 12:51:51;;;;;;;;;1.75;1.75;;;;;;;;4687692;30;45702;-90
2021/07/29 12:54:17;;;;;;;;;2.00;2.00;;;;;;;;4689509;30;46374;-91
2021/07/29 12:57:02;;;;;;;;;1.00;1.00;;;;;;;;4689332;30;46978;-90
2021/07/29 12:59:27;;;;;;;;;1.25;1.25;;;;;;;;4674294;30;45548;-92
2021/07/29 13:01:53;;;;;;;;;2.00;2.00;;;;;;;;4694265;30;45562;-89
2021/07/29 13:04:24;;;;;;;;;2.00;2.00;;;;;;;;4693712;30;45554;-90
2021/07/29 13:06:50;;;;;;;;;4.00;1.50;;;;;;;;4685031;30;45849;-90
2021/07/29 13:09:15;;;;;;;;;2.25;1.00;;;;;;;;4672694;30;45781;-91
2021/07/29 13:11:52;;;;;;;;;1.00;1.00;;;;;;;;4691320;30;45444;-92
2021/07/29 13:14:18;;;;;;;;;1.75;1.75;;;;;;;;4675003;30;47862;-91
2021/07/29 13:16:43;;;;;;;;;2.00;2.00;;;;;;;;4692830;30;45849;-88
2021/07/29 13:19:08;;;;;;;;;1.25;1.25;;;;;;;;4688000;30;45467;-87
2021/07/29 13:21:35;;;;;;;;;2.00;1.00;;;;;;;;4693475;30;45642;-91
2021/07/29 13:24:00;;;;;;;;;2.50;1.25;;;;;;;;4685039;30;46255;-90
2021/07/29 13:26:31;;;;;;;;;8.00;2.00;;;;;;;;4692773;30;45579;-91
2021/07/29 13:28:57;;;;;;;;;2.25;1.00;;;;;;;;4694268;30;46064;-89
2021/07/29 13:31:23;;;;;;;;;4.00;2.00;;;;;;;;4690279;30;45596;-89
2021/07/29 13:33:51;;;;;;;;;1.00;1.00;;;;;;;;4675785;30;48017;-90
2021/07/29 13:36:18;;;;;;;;;1.50;1.50;;;;;;;;4944658;24;45950;-88
2021/07/29 13:57:25;;;;;;;;;;;;;;;;;;;;;
2021/07/29 14:03:10;;;;;;;;;2.75;2.00;;;;;;;;4558445;31;45866;-80
2021/07/29 14:05:49;;;;;;;;;1.75;1.75;;;;;;;;4554307;31;45777;-80
2021/07/29 14:08:14;;;;;;;;;2.75;2.00;;;;;;;;4544852;31;48088;-81
2021/07/29 14:10:41;;;;;;;;;3.25;1.50;;;;;;;;4539949;31;46510;-81
2021/07/29 14:13:26;;;;;;;;;2.00;2.00;;;;;;;;4529746;31;53475;-80
2021/07/29 14:19:04;;;;;;;;;2.25;1.50;;;;;;;;4541642;31;45622;-82
2021/07/29 14:42:55;;;;;;;;;0.75;0.75;;;;;;;;4646760;30;45703;-80
2021/07/29 16:17:13;;;;;;;;;1.75;1.75;;;;;;;;4701249;30;45766;-77
2021/07/29 16:29:52;;;;;;;;;2.50;2.50;;;;;;;;4678221;30;45846;-78
2021/07/29 16:35:20;;;;;;;;;3.00;3.00;;;;;;;;4700847;24;45474;-90
2021/07/29 17:04:11;;;;;;;;;6.00;3.25;;;;;;;;5369974;24;46979;-91
2021/07/29 17:06:58;;;;;;;;;2.00;2.00;;;;;;;;4663455;30;45577;-91
2021/07/29 17:42:16;;;;;;;;;3.25;3.25;;;;;;;;5207060;24;46015;-94
2021/07/29 17:44:42;;;;;;;;;2.25;2.00;;;;;;;;4692135;30;44789;-91
2021/07/29 17:52:57;;;;;;;;;3.00;2.00;;;;;;;;4498916;28;47299;-83
2021/07/29 17:55:25;;;;;;;;;5.00;4.00;;;;;;;;4659292;30;45590;-83
2021/07/29 17:58:13;;;;;;;;;3.00;2.00;;;;;;;;4640717;30;45713;-82
2021/07/29 18:00:49;;;;;;;;;3.50;3.00;;;;;;;;4571115;30;46545;-85
2021/07/29 18:03:17;;;;;;;;;3.00;3.00;;;;;;;;4577551;30;46114;-85
2021/07/29 18:06:01;;;;;;;;;;;;;;;;;;;;;
2021/07/29 18:11:17;;;;;;;;;3.25;2.75;;;;;;;;4573542;30;49987;-84
2021/07/29 18:13:51;;;;;;;;;3.00;3.00;;;;;;;;4560633;30;47140;-84
2021/07/29 18:19:13;;;;;;;;;2.75;2.00;;;;;;;;4575868;30;45803;-83
2021/07/29 18:21:41;;;;;;;;;3.75;2.25;;;;;;;;4560715;30;49143;-84
2021/07/29 18:24:32;;;;;;;;;3.50;2.75;;;;;;;;4577583;30;45700;-86
2021/07/29 18:30:06;;;;;;;;;5.25;3.25;;;;;;;;4467927;28;49565;-82
2021/07/29 18:32:32;;;;;;;;;3.75;1.75;;;;;;;;4656486;30;45480;-83
2021/07/29 18:38:55;;;;;;;;;4.00;2.50;;;;;;;;4613760;30;45629;-85
2021/07/29 18:41:20;;;;;;;;;3.50;2.00;;;;;;;;4631990;24;45681;-89
2021/07/29 18:43:45;;;;;;;;;3.25;1.75;;;;;;;;4701989;30;45517;-91
2021/07/29 18:46:11;;;;;;;;;4.00;3.50;;;;;;;;4696011;30;48473;-92
2021/07/29 18:48:36;;;;;;;;;2.50;2.25;;;;;;;;4713420;30;45368;-92
2021/07/29 18:51:21;;;;;;;;;2.00;2.00;;;;;;;;4720167;30;45860;-94
2021/07/29 18:53:46;;;;;;;;;3.00;3.00;;;;;;;;4718042;30;45439;-95
2021/07/29 18:56:12;;;;;;;;;5.00;4.00;;;;;;;;4716689;30;45410;-94
2021/07/29 18:58:37;;;;;;;;;1.75;1.75;;;;;;;;4714086;30;45476;-91
2021/07/29 19:03:39;;;;;;;;;4.00;2.75;;;;;;;;4747791;24;45434;-95
2021/07/29 19:06:05;;;;;;;;;2.00;2.00;;;;;;;;4692018;30;47260;-92
2021/07/29 19:08:30;;;;;;;;;3.00;3.00;;;;;;;;4709508;30;45398;-94
2021/07/29 19:10:56;;;;;;;;;1.50;1.50;;;;;;;;4691304;30;45356;-92
2021/07/29 19:13:21;;;;;;;;;4.00;3.00;;;;;;;;4688386;30;46073;-95
2021/07/29 19:15:55;;;;;;;;;2.50;2.50;;;;;;;;4714665;30;45464;-93
2021/07/29 19:18:20;;;;;;;;;3.00;3.00;;;;;;;;4710829;30;45499;-94
2021/07/29 19:20:45;;;;;;;;;4.25;2.50;;;;;;;;4720737;30;44846;-94
2021/07/29 19:23:14;;;;;;;;;4.75;4.75;;;;;;;;4692148;30;45414;-94
2021/07/29 19:25:39;;;;;;;;;3.00;3.00;;;;;;;;4687939;30;47083;-92
2021/07/29 19:28:05;;;;;;;;;5.00;2.75;;;;;;;;4696682;30;45293;-94
2021/07/29 19:30:32;;;;;;;;;6.75;4.00;;;;;;;;4707100;30;45455;-94
2021/07/29 19:32:58;;;;;;;;;7.25;3.25;;;;;;;;4690099;30;45572;-94
2021/07/29 19:35:23;;;;;;;;;5.00;4.00;;;;;;;;4703011;30;46252;-93
2021/07/29 19:37:48;;;;;;;;;3.00;3.00;;;;;;;;4707197;30;45348;-94
2021/07/29 19:40:16;;;;;;;;;3.25;3.25;;;;;;;;4700797;30;45398;-95
2021/07/29 19:42:41;;;;;;;;;4.00;4.00;;;;;;;;4684607;30;45430;-95
2021/07/29 19:45:07;;;;;;;;;3.00;3.00;;;;;;;;4709316;30;45550;-93
2021/07/29 19:47:32;;;;;;;;;5.00;3.00;;;;;;;;4705817;30;45494;-93
2021/07/29 19:49:58;;;;;;;;;4.00;3.00;;;;;;;;4705612;30;45498;-91
2021/07/29 19:52:23;;;;;;;;;3.00;3.00;;;;;;;;4695795;30;45433;-94
2021/07/29 19:54:49;;;;;;;;;3.00;3.00;;;;;;;;4689988;30;47182;-94
2021/07/29 19:57:14;;;;;;;;;3.00;3.00;;;;;;;;4691682;30;45594;-92
2021/07/29 19:59:43;;;;;;;;;3.00;3.00;;;;;;;;4687675;30;45408;-94
2021/07/29 20:02:09;;;;;;;;;4.00;3.00;;;;;;;;4697795;30;45415;-93
2021/07/29 20:04:35;;;;;;;;;4.00;4.00;;;;;;;;4701703;30;46407;-92
2021/07/29 20:07:00;;;;;;;;;4.50;4.00;;;;;;;;4703224;30;45511;-92
2021/07/29 20:09:29;;;;;;;;;5.00;3.67;;;;;;;;4697619;30;45674;-93
2021/07/29 20:11:56;;;;;;;;;4.00;4.00;;;;;;;;4684867;30;45433;-94
2021/07/29 20:14:21;;;;;;;;;4.25;4.25;;;;;;;;4700831;30;45677;-93
2021/07/29 20:16:46;;;;;;;;;7.00;5.25;;;;;;;;4687624;30;45815;-95
2021/07/29 20:19:12;;;;;;;;;6.25;4.00;;;;;;;;4698072;30;45380;-93
2021/07/29 20:21:37;;;;;;;;;5.00;5.00;;;;;;;;4686797;30;45599;-92
2021/07/29 20:24:11;;;;;;;;;6.25;5.00;;;;;;;;4699729;30;46120;-93
2021/07/29 20:26:37;;;;;;;;;6.75;6.00;;;;;;;;4703479;30;45671;-92
2021/07/29 20:29:03;;;;;;;;;8.00;5.00;;;;;;;;4704925;30;45486;-90
2021/07/29 20:31:29;;;;;;;;;5.00;5.00;;;;;;;;4711767;30;45262;-94
2021/07/29 20:33:55;;;;;;;;;7.25;5.75;;;;;;;;4687647;30;47809;-94
2021/07/29 20:36:20;;;;;;;;;6.00;6.00;;;;;;;;4693991;30;45538;-92
2021/07/29 20:38:45;;;;;;;;;7.50;6.00;;;;;;;;4704564;30;45489;-95
2021/07/29 20:41:11;;;;;;;;;6.00;6.00;;;;;;;;4684498;30;45490;-92
2021/07/29 20:43:37;;;;;;;;;6.50;6.50;;;;;;;;4691799;30;45452;-94
2021/07/29 20:46:05;;;;;;;;;5.50;5.00;;;;;;;;4719300;30;44769;-93
2021/07/29 20:57:35;;;;;;;;;8.00;7.00;;;;;;;;4054848;28;45698;-78
2021/07/29 20:59:29;;;;;;;;;8.00;8.00;;;;;;;;4673806;30;45946;-79
2021/07/29 21:09:43;;;;;;;;;8.25;8.00;;;;;;;;4683311;30;45754;-78
2021/07/29 21:16:22;;;;;;;;;5.00;5.00;;;;;;;;4535722;31;45581;-78
2021/07/29 21:18:40;;;;;;;;;6.00;6.00;;;;;;;;4535460;31;45648;-78
2021/07/29 21:24:07;;;;;;;;;8.75;8.00;;;;;;;;4971511;24;47765;-78
2021/07/29 21:26:32;;;;;;;;;7.00;7.00;;;;;;;;4668230;30;47274;-78
2021/07/29 21:28:57;;;;;;;;;6.25;6.00;;;;;;;;4666020;30;46390;-78
2021/07/29 21:31:23;;;;;;;;;7.33;6.33;;;;;;;;4685966;30;45398;-78
2021/07/29 21:33:48;;;;;;;;;7.75;6.75;;;;;;;;4682403;30;45681;-79
2021/07/29 21:36:13;;;;;;;;;7.25;7.00;;;;;;;;4685111;30;45477;-78
2021/07/29 21:38:38;;;;;;;;;8.00;8.00;;;;;;;;4670972;30;45601;-79
2021/07/29 21:41:04;;;;;;;;;7.25;6.00;;;;;;;;4681864;30;45616;-79
2021/07/29 21:43:31;;;;;;;;;7.75;6.25;;;;;;;;4686554;30;45554;-78
2021/07/29 21:45:57;;;;;;;;;7.50;7.50;;;;;;;;4680222;30;45625;-79
2021/07/29 21:48:22;;;;;;;;;8.50;7.00;;;;;;;;4663367;30;45794;-80
2021/07/29 21:50:47;;;;;;;;;10.00;7.00;;;;;;;;4690072;30;45432;-80
2021/07/29 21:53:12;;;;;;;;;6.25;5.50;;;;;;;;4685233;30;45706;-80
2021/07/29 21:55:38;;;;;;;;;6.75;6.00;;;;;;;;4670101;30;47307;-80
2021/07/29 21:58:06;;;;;;;;;8.00;7.00;;;;;;;;4668667;30;45400;-81
2021/07/29 22:00:31;;;;;;;;;7.50;6.25;;;;;;;;4671281;30;46199;-82
2021/07/29 22:02:56;;;;;;;;;8.50;8.00;;;;;;;;4686008;30;45163;-81
2021/07/29 22:05:22;;;;;;;;;8.75;7.75;;;;;;;;4685654;30;46624;-81
2021/07/29 22:07:48;;;;;;;;;5.50;5.50;;;;;;;;4687462;30;45619;-82
2021/07/29 22:10:13;;;;;;;;;8.00;7.25;;;;;;;;4687580;30;47846;-82
2021/07/29 22:12:38;;;;;;;;;9.00;6.50;;;;;;;;4686580;30;45589;-82
2021/07/29 22:15:04;;;;;;;;;8.50;7.00;;;;;;;;4682385;30;45669;-81
2021/07/29 22:17:29;;;;;;;;;14.50;10.00;;;;;;;;4686209;30;45955;-82
2021/07/29 22:19:56;;;;;;;;;7.25;6.75;;;;;;;;4686126;30;45696;-83
2021/07/29 22:22:21;;;;;;;;;10.50;10.00;;;;;;;;4672251;30;45336;-82
2021/07/29 22:24:47;;;;;;;;;6.50;4.50;;;;;;;;4683333;30;45654;-82
2021/07/29 22:27:12;;;;;;;;;9.00;6.00;;;;;;;;4672938;30;45631;-81
2021/07/29 22:29:37;;;;;;;;;12.25;7.25;;;;;;;;4671498;30;45543;-82
2021/07/29 22:32:03;;;;;;;;;11.33;6.33;;;;;;;;4666767;30;45528;-81
2021/07/29 22:34:28;;;;;;;;;9.25;8.00;;;;;;;;4977567;24;47719;-81
2021/07/29 22:37:26;;;;;;;;;11.67;9.00;;;;;;;;4662339;30;54519;-81
2021/07/29 22:42:58;;;;;;;;;9.25;8.00;;;;;;;;4665418;30;46954;-82
2021/07/29 22:45:23;;;;;;;;;10.00;8.00;;;;;;;;4677776;30;46720;-82
2021/07/29 23:48:29;;;;;;;;;9.00;7.50;;;;;;;;5400916;24;45774;-92
2021/07/29 23:50:55;;;;;;;;;8.00;8.00;;;;;;;;4687440;30;47268;-94
2021/07/29 23:53:23;;;;;;;;;6.75;5.75;;;;;;;;4700698;30;45455;-94
2021/07/29 23:55:49;;;;;;;;;10.25;8.00;;;;;;;;4703370;30;45553;-93
2021/07/29 23:58:14;;;;;;;;;9.25;6.25;;;;;;;;4709590;30;45391;-91
